createdAt,value
2022-07-25T00:02:28.778Z,99080.23
2022-07-25T00:05:44.846Z,99087.02
2022-07-25T00:09:00.946Z,99079.03
2022-07-25T00:12:18.178Z,99076.97
2022-07-25T00:15:34.281Z,99078.22
2022-07-25T00:18:50.968Z,99083.56
2022-07-25T00:22:07.755Z,99081.33
2022-07-25T00:25:24.034Z,99072.05
2022-07-25T00:28:40.193Z,99074.95
2022-07-25T00:31:56.234Z,99072.70
2022-07-25T00:35:15.036Z,99073.52
2022-07-25T00:38:30.998Z,99070.44
2022-07-25T00:41:47.134Z,99069.19
2022-07-25T00:45:03.094Z,99071.45
2022-07-25T00:48:19.141Z,99065.70
2022-07-25T00:51:35.523Z,99070.42
2022-07-25T00:54:51.918Z,99070.84
2022-07-25T00:58:08.187Z,99060.98
2022-07-25T01:01:25.281Z,99059.34
2022-07-25T01:04:41.740Z,99063.65
2022-07-25T01:07:59.265Z,99051.73
2022-07-25T01:11:16.280Z,99052.34
2022-07-25T01:14:33.085Z,99052.78
2022-07-25T01:17:49.171Z,99042.11
2022-07-25T01:21:05.591Z,99039.83
2022-07-25T01:24:21.983Z,99037.38
2022-07-25T01:27:39.022Z,99043.73
2022-07-25T01:30:55.153Z,99030.78
2022-07-25T01:34:11.716Z,99031.41
2022-07-25T01:37:27.686Z,99036.13
2022-07-25T01:40:43.848Z,99040.84
2022-07-25T01:43:59.780Z,99038.17
2022-07-25T01:47:16.020Z,99038.81
2022-07-25T01:50:32.640Z,99034.08
2022-07-25T01:53:49.015Z,99032.43
2022-07-25T01:57:05.353Z,99036.55
2022-07-25T02:00:23.923Z,99040.45
2022-07-25T02:03:40.042Z,99035.50
2022-07-25T02:06:57.149Z,99027.28
2022-07-25T02:10:14.730Z,99030.55
2022-07-25T02:13:32.413Z,99028.09
2022-07-25T02:16:48.572Z,99029.95
2022-07-25T02:20:05.973Z,99025.01
2022-07-25T02:23:21.909Z,99024.41
2022-07-25T02:26:37.891Z,99029.13
2022-07-25T02:29:54.049Z,99027.68
2022-07-25T02:33:10.512Z,99027.68
2022-07-25T02:36:26.592Z,99028.07
2022-07-25T02:39:42.998Z,99038.15
2022-07-25T02:42:58.994Z,99037.27
2022-07-25T02:46:15.438Z,99038.30
2022-07-25T02:49:31.696Z,99028.84
2022-07-25T02:52:47.773Z,99031.09
2022-07-25T02:56:03.798Z,99024.31
2022-07-25T02:59:21.661Z,99024.52
2022-07-25T03:02:37.715Z,99028.20
2022-07-25T03:05:54.183Z,99031.30
2022-07-25T03:09:10.274Z,99027.58
2022-07-25T03:12:26.379Z,99026.77
2022-07-25T03:15:42.485Z,99033.54
2022-07-25T03:18:58.603Z,99028.20
2022-07-25T03:22:14.786Z,99034.34
2022-07-25T03:25:31.059Z,99040.50
2022-07-25T03:28:47.081Z,99041.34
2022-07-25T03:32:03.255Z,99043.59
2022-07-25T03:35:20.435Z,99052.23
2022-07-25T03:38:36.740Z,99051.00
2022-07-25T03:41:53.644Z,99044.00
2022-07-25T03:45:10.232Z,99044.81
2022-07-25T03:48:26.511Z,99048.12
2022-07-25T03:51:42.736Z,99050.80
2022-07-25T03:54:58.748Z,99045.28
2022-07-25T03:58:15.061Z,99044.51
2022-07-25T04:01:31.163Z,99042.89
2022-07-25T04:04:47.523Z,99050.69
2022-07-25T04:08:03.746Z,99044.53
2022-07-25T04:11:20.910Z,99039.63
2022-07-25T04:14:37.100Z,99038.81
2022-07-25T04:17:53.140Z,99031.41
2022-07-25T04:21:10.713Z,99025.66
2022-07-25T04:24:27.123Z,99027.70
2022-07-25T04:27:43.175Z,99034.06
2022-07-25T04:30:59.677Z,99030.09
2022-07-25T04:34:15.823Z,99026.19
2022-07-25T04:37:31.923Z,99024.09
2022-07-25T04:40:48.958Z,99023.03
2022-07-25T04:44:05.414Z,99018.66
2022-07-25T04:47:22.717Z,99021.45
2022-07-25T04:50:39.163Z,99021.39
2022-07-25T04:53:55.285Z,99013.08
2022-07-25T04:57:11.519Z,99007.48
2022-07-25T05:00:28.725Z,99011.13
2022-07-25T05:03:50.407Z,99008.59
2022-07-25T05:07:02.542Z,99012.66
2022-07-25T05:10:22.649Z,99009.72
2022-07-25T05:13:38.799Z,99010.42
2022-07-25T05:16:54.875Z,99013.95
2022-07-25T05:20:12.178Z,99014.59
2022-07-25T05:23:28.437Z,99018.94
2022-07-25T05:26:44.419Z,99009.91
2022-07-25T05:30:00.675Z,99010.39
2022-07-25T05:33:16.926Z,99012.45
2022-07-25T05:36:33.009Z,99022.31
2022-07-25T05:39:49.298Z,99013.48
2022-07-25T05:43:05.363Z,99007.12
2022-07-25T05:46:22.648Z,99015.80
2022-07-25T05:49:38.434Z,99004.40
2022-07-25T05:52:54.487Z,99013.30
2022-07-25T05:56:11.157Z,99017.86
2022-07-25T05:59:27.266Z,99009.81
2022-07-25T06:02:43.630Z,99014.97
2022-07-25T06:06:00.375Z,99012.84
2022-07-25T06:09:16.744Z,99014.46
2022-07-25T06:12:36.476Z,99021.73
2022-07-25T06:15:52.481Z,99017.38
2022-07-25T06:19:08.839Z,99016.99
2022-07-25T06:22:25.071Z,99018.86
2022-07-25T06:25:41.392Z,99009.67
2022-07-25T06:28:57.616Z,99010.45
2022-07-25T06:32:14.475Z,99005.49
2022-07-25T06:35:31.539Z,98998.97
2022-07-25T06:38:47.613Z,99006.78
2022-07-25T06:42:04.905Z,99001.09
2022-07-25T06:45:25.365Z,98994.80
2022-07-25T06:48:41.660Z,98993.90
2022-07-25T06:51:57.832Z,98996.19
2022-07-25T06:55:17.266Z,98991.67
2022-07-25T06:58:33.669Z,98992.91
2022-07-25T07:01:51.842Z,98990.59
2022-07-25T07:05:07.819Z,98986.14
2022-07-25T07:08:23.888Z,98972.84
2022-07-25T07:11:40.191Z,98973.77
2022-07-25T07:14:56.275Z,98973.45
2022-07-25T07:18:12.471Z,98958.34
2022-07-25T07:21:28.809Z,98959.54
2022-07-25T07:24:45.388Z,98958.59
2022-07-25T07:28:03.386Z,98961.13
2022-07-25T07:31:19.787Z,98962.30
2022-07-25T07:34:36.289Z,98968.09
2022-07-25T07:37:53.414Z,98960.59
2022-07-25T07:41:09.516Z,98959.55
2022-07-25T07:44:25.792Z,98963.40
2022-07-25T07:47:42.241Z,98963.31
2022-07-25T07:50:58.283Z,98962.89
2022-07-25T07:54:28.986Z,98963.54
2022-07-25T07:57:45.164Z,98964.02
2022-07-25T08:01:01.193Z,98959.78
2022-07-25T08:04:17.372Z,98967.13
2022-07-25T08:07:33.412Z,98968.16
2022-07-25T08:10:55.642Z,98970.75
2022-07-25T08:14:09.929Z,98968.47
2022-07-25T08:17:28.720Z,98966.41
2022-07-25T08:20:44.751Z,98970.09
2022-07-25T08:24:01.293Z,98961.09
2022-07-25T08:27:17.677Z,98958.51
2022-07-25T08:30:33.771Z,98968.44
2022-07-25T08:33:49.988Z,98961.73
2022-07-25T08:37:06.233Z,98962.06
2022-07-25T08:40:25.497Z,98963.25
2022-07-25T08:43:48.134Z,98962.61
2022-07-25T08:47:05.860Z,98950.86
2022-07-25T08:50:27.109Z,98948.81
2022-07-25T08:53:43.895Z,98951.34
2022-07-25T08:57:02.004Z,98949.70
2022-07-25T09:00:24.145Z,98945.63
2022-07-25T09:03:41.194Z,98957.52
2022-07-25T09:07:06.325Z,98952.86
2022-07-25T09:10:26.679Z,98960.59
2022-07-25T09:13:43.134Z,98963.53
2022-07-25T09:16:59.299Z,98960.06
2022-07-25T09:20:18.601Z,98952.48
2022-07-25T09:23:45.665Z,98948.02
2022-07-25T09:27:04.215Z,98948.75
2022-07-25T09:30:26.075Z,98943.49
2022-07-25T09:33:52.951Z,98934.58
2022-07-25T09:37:10.751Z,98934.28
2022-07-25T09:40:29.335Z,98937.83
2022-07-25T09:43:50.539Z,98927.56
2022-07-25T09:47:17.186Z,98928.72
2022-07-25T09:50:36.835Z,98935.24
2022-07-25T09:53:53.383Z,98926.87
2022-07-25T09:57:09.841Z,98930.59
2022-07-25T10:00:30.832Z,98923.94
2022-07-25T10:03:56.913Z,98924.45
2022-07-25T10:07:16.627Z,98914.53
2022-07-25T10:10:44.249Z,98904.43
2022-07-25T10:14:01.100Z,98901.52
2022-07-25T10:17:27.168Z,98904.02
2022-07-25T10:20:44.479Z,98895.23
2022-07-25T10:24:12.354Z,98889.77
2022-07-25T10:27:33.734Z,98887.03
2022-07-25T10:30:50.679Z,98885.06
2022-07-25T10:34:10.848Z,98886.83
2022-07-25T10:37:33.957Z,98889.67
2022-07-25T10:40:53.049Z,98882.36
2022-07-25T10:44:14.175Z,98877.52
2022-07-25T10:47:33.788Z,98873.07
2022-07-25T10:51:05.629Z,98868.33
2022-07-25T10:54:27.411Z,98858.42
2022-07-25T10:58:07.914Z,98863.46
2022-07-25T11:01:02.424Z,98857.41
2022-07-25T11:04:23.496Z,98860.63
2022-07-25T11:07:42.468Z,98858.52
2022-07-25T11:11:01.735Z,98850.92
2022-07-25T11:14:27.757Z,98832.23
2022-07-25T11:17:44.202Z,98833.64
2022-07-25T11:21:11.657Z,98831.92
2022-07-25T11:24:28.337Z,98824.84
2022-07-25T11:27:45.597Z,98819.08
2022-07-25T11:31:09.933Z,98813.83
2022-07-25T11:34:30.510Z,98815.24
2022-07-25T11:37:52.443Z,98809.47
2022-07-25T11:41:09.439Z,98801.24
2022-07-25T11:44:36.933Z,98796.31
2022-07-25T11:47:54.644Z,98795.00
2022-07-25T11:51:24.046Z,98783.94
2022-07-25T11:54:40.235Z,98786.38
2022-07-25T11:57:57.185Z,98766.56
2022-07-25T12:01:21.104Z,98760.25
2022-07-25T12:04:37.375Z,98758.94
2022-07-25T12:07:55.887Z,98764.11
2022-07-25T12:11:09.810Z,98751.43
2022-07-25T12:14:26.257Z,98746.78
2022-07-25T12:17:44.081Z,98746.78
2022-07-25T12:21:01.870Z,98739.09
2022-07-25T12:24:18.310Z,98731.19
2022-07-25T12:27:34.512Z,98726.57
2022-07-25T12:30:56.479Z,98717.88
2022-07-25T12:34:11.459Z,98720.08
2022-07-25T12:37:27.665Z,98712.00
2022-07-25T12:40:44.624Z,98719.23
2022-07-25T12:44:01.797Z,98711.59
2022-07-25T12:47:17.878Z,98704.91
2022-07-25T12:50:34.333Z,98695.73
2022-07-25T12:53:53.405Z,98697.93
2022-07-25T12:57:09.612Z,98685.99
2022-07-25T13:00:29.475Z,98684.02
2022-07-25T13:03:45.606Z,98684.89
2022-07-25T13:07:05.522Z,98682.75
2022-07-25T13:10:21.926Z,98682.83
2022-07-25T13:13:38.110Z,98685.25
2022-07-25T13:16:56.182Z,98683.05
2022-07-25T13:20:16.542Z,98671.28
2022-07-25T13:23:33.422Z,98662.81
2022-07-25T13:26:50.051Z,98653.02
2022-07-25T13:30:06.239Z,98652.50
2022-07-25T13:33:22.300Z,98647.66
2022-07-25T13:36:39.548Z,98647.97
2022-07-25T13:39:56.614Z,98638.45
2022-07-25T13:43:12.777Z,98628.97
2022-07-25T13:46:31.585Z,98627.38
2022-07-25T13:49:47.589Z,98620.09
2022-07-25T13:53:05.046Z,98624.52
2022-07-25T13:56:21.362Z,98620.97
2022-07-25T13:59:37.448Z,98610.08
2022-07-25T14:02:53.731Z,98603.02
2022-07-25T14:06:10.417Z,98608.46
2022-07-25T14:09:28.273Z,98600.02
2022-07-25T14:12:45.220Z,98601.62
2022-07-25T14:16:01.475Z,98610.61
2022-07-25T14:19:18.222Z,98601.34
2022-07-25T14:22:34.380Z,98591.55
2022-07-25T14:25:50.912Z,98589.33
2022-07-25T14:29:09.739Z,98580.89
2022-07-25T14:32:26.317Z,98579.78
2022-07-25T14:35:44.016Z,98582.52
2022-07-25T14:39:00.029Z,98580.89
2022-07-25T14:42:17.883Z,98572.20
2022-07-25T14:45:34.838Z,98565.66
2022-07-25T14:48:51.253Z,98559.69
2022-07-25T14:52:08.195Z,98558.90
2022-07-25T14:55:25.912Z,98546.39
2022-07-25T14:58:43.898Z,98552.63
2022-07-25T15:02:00.836Z,98539.33
2022-07-25T15:05:17.860Z,98535.51
2022-07-25T15:08:36.579Z,98533.89
2022-07-25T15:11:52.804Z,98530.06
2022-07-25T15:15:09.106Z,98527.13
2022-07-25T15:18:25.144Z,98527.73
2022-07-25T15:21:44.902Z,98524.50
2022-07-25T15:28:19.131Z,98522.30
2022-07-25T15:31:35.765Z,98510.59
2022-07-25T15:34:51.990Z,98517.13
2022-07-25T15:38:08.446Z,98511.20
2022-07-25T15:41:24.811Z,98512.81
2022-07-25T15:44:40.960Z,98504.13
2022-07-25T15:47:57.659Z,98501.41
2022-07-25T15:51:14.553Z,98497.07
2022-07-25T15:54:31.192Z,98491.11
2022-07-25T15:57:47.513Z,98485.67
2022-07-25T16:01:04.148Z,98484.08
2022-07-25T16:04:20.663Z,98480.84
2022-07-25T16:07:37.681Z,98469.95
2022-07-25T16:10:54.029Z,98471.36
2022-07-25T16:14:10.834Z,98471.66
2022-07-25T16:17:29.480Z,98466.50
2022-07-25T16:20:50.372Z,98462.16
2022-07-25T16:24:06.749Z,98464.39
2022-07-25T16:27:32.545Z,98459.74
2022-07-25T16:30:56.283Z,98468.52
2022-07-25T16:34:08.628Z,98466.89
2022-07-25T16:37:25.251Z,98456.02
2022-07-25T16:40:41.792Z,98457.42
2022-07-25T16:43:58.568Z,98458.52
2022-07-25T16:47:16.928Z,98457.20
2022-07-25T16:50:34.122Z,98459.13
2022-07-25T16:53:50.550Z,98461.33
2022-07-25T16:57:06.760Z,98451.03
2022-07-25T17:00:24.023Z,98455.13
2022-07-25T17:03:40.508Z,98452.70
2022-07-25T17:06:57.274Z,98454.11
2022-07-25T17:10:16.613Z,98452.48
2022-07-25T17:13:33.146Z,98446.83
2022-07-25T17:16:50.633Z,98446.12
2022-07-25T17:20:07.209Z,98440.98
2022-07-25T17:23:24.060Z,98436.13
2022-07-25T17:26:45.151Z,98439.72
2022-07-25T17:30:03.432Z,98437.08
2022-07-25T17:33:19.957Z,98443.13
2022-07-25T17:36:37.027Z,98428.00
2022-07-25T17:39:54.449Z,98432.38
2022-07-25T17:43:10.825Z,98421.59
2022-07-25T17:46:27.064Z,98422.20
2022-07-25T17:49:43.363Z,98423.07
2022-07-25T17:53:00.896Z,98416.88
2022-07-25T17:56:17.798Z,98416.44
2022-07-25T17:59:34.929Z,98412.40
2022-07-25T18:02:51.609Z,98415.69
2022-07-25T18:06:07.952Z,98407.09
2022-07-25T18:09:25.068Z,98402.55
2022-07-25T18:12:41.572Z,98398.29
2022-07-25T18:15:58.218Z,98396.97
2022-07-25T18:19:16.203Z,98404.05
2022-07-25T18:22:32.704Z,98399.79
2022-07-25T18:25:49.015Z,98394.13
2022-07-25T18:29:07.683Z,98395.52
2022-07-25T18:32:21.465Z,98387.97
2022-07-25T18:35:37.985Z,98388.54
2022-07-25T18:38:54.651Z,98382.88
2022-07-25T18:42:11.200Z,98389.47
2022-07-25T18:45:27.939Z,98381.13
2022-07-25T18:48:44.900Z,98378.67
2022-07-25T18:52:02.028Z,98375.20
2022-07-25T18:55:20.639Z,98376.80
2022-07-25T18:58:36.874Z,98365.59
2022-07-25T19:01:53.138Z,98370.78
2022-07-25T19:05:09.662Z,98373.20
2022-07-25T19:08:25.935Z,98373.30
2022-07-25T19:11:42.596Z,98369.19
2022-07-25T19:14:59.602Z,98370.76
2022-07-25T19:18:16.117Z,98353.88
2022-07-25T19:21:32.680Z,98358.03
2022-07-25T19:24:49.239Z,98359.23
2022-07-25T19:28:05.499Z,98355.23
2022-07-25T19:31:22.380Z,98348.23
2022-07-25T19:34:38.670Z,98348.00
2022-07-25T19:37:54.989Z,98352.05
2022-07-25T19:41:11.804Z,98342.83
2022-07-25T19:44:28.336Z,98336.88
2022-07-25T19:47:44.528Z,98335.52
2022-07-25T19:51:02.079Z,98342.52
2022-07-25T19:54:18.437Z,98332.56
2022-07-25T19:57:34.584Z,98333.16
2022-07-25T20:00:51.083Z,98330.47
2022-07-25T20:04:09.653Z,98329.36
2022-07-25T20:07:26.352Z,98337.47
2022-07-25T20:10:42.642Z,98325.55
2022-07-25T20:13:59.348Z,98324.19
2022-07-25T20:17:24.985Z,98315.27
2022-07-25T20:20:44.308Z,98318.23
2022-07-25T20:24:04.157Z,98317.14
2022-07-25T20:27:23.346Z,98313.91
2022-07-25T20:30:41.893Z,98306.67
2022-07-25T20:33:58.325Z,98312.66
2022-07-25T20:37:14.421Z,98306.98
2022-07-25T20:40:31.334Z,98316.72
2022-07-25T20:43:49.961Z,98323.48
2022-07-25T20:47:06.057Z,98312.41
2022-07-25T20:50:22.377Z,98309.98
2022-07-25T20:53:38.601Z,98311.59
2022-07-25T20:56:55.013Z,98305.39
2022-07-25T21:00:12.516Z,98305.67
2022-07-25T21:03:28.712Z,98312.16
2022-07-25T21:06:45.482Z,98309.19
2022-07-25T21:10:02.345Z,98309.42
2022-07-25T21:13:18.875Z,98304.58
2022-07-25T21:16:35.018Z,98320.23
2022-07-25T21:19:51.233Z,98315.35
2022-07-25T21:23:07.332Z,98309.95
2022-07-25T21:26:23.746Z,98306.69
2022-07-25T21:29:39.785Z,98306.86
2022-07-25T21:32:56.027Z,98309.48
2022-07-25T21:36:13.118Z,98318.13
2022-07-25T21:39:29.258Z,98315.73
2022-07-25T21:42:46.542Z,98316.02
2022-07-25T21:46:02.775Z,98313.31
2022-07-25T21:49:40.992Z,98315.74
2022-07-25T21:52:51.008Z,98311.11
2022-07-25T21:56:07.285Z,98322.91
2022-07-25T21:59:23.375Z,98315.48
2022-07-25T22:02:39.373Z,98311.80
2022-07-25T22:05:55.634Z,98302.49
2022-07-25T22:09:12.684Z,98309.97
2022-07-25T22:12:28.511Z,98309.03
2022-07-25T22:15:45.273Z,98297.08
2022-07-25T22:19:01.690Z,98299.16
2022-07-25T22:22:17.919Z,98300.72
2022-07-25T22:25:34.374Z,98286.11
2022-07-25T22:28:51.481Z,98278.53
2022-07-25T22:32:08.964Z,98289.74
2022-07-25T22:35:25.991Z,98280.48
2022-07-25T22:38:42.660Z,98286.08
2022-07-25T22:41:59.822Z,98275.76
2022-07-25T22:45:19.783Z,98270.10
2022-07-25T22:48:35.938Z,98260.77
2022-07-25T22:51:52.314Z,98263.86
2022-07-25T22:55:08.404Z,98247.85
2022-07-25T22:58:24.611Z,98240.68
2022-07-25T23:01:40.689Z,98237.23
2022-07-25T23:04:56.732Z,98232.91
2022-07-25T23:08:13.310Z,98224.08
2022-07-25T23:11:31.813Z,98231.89
2022-07-25T23:14:47.870Z,98228.17
2022-07-25T23:18:04.276Z,98216.28
2022-07-25T23:21:21.217Z,98216.47
2022-07-25T23:24:38.150Z,98210.11
2022-07-25T23:27:54.601Z,98213.20
2022-07-25T23:31:10.892Z,98208.27
2022-07-25T23:34:27.129Z,98206.23
2022-07-25T23:37:43.263Z,98195.34
2022-07-25T23:40:59.854Z,98193.56
2022-07-25T23:44:16.343Z,98199.53
2022-07-25T23:47:40.568Z,98204.02
2022-07-25T23:50:51.379Z,98198.11
2022-07-25T23:54:07.708Z,98207.28
2022-07-25T23:57:23.733Z,98219.34
